Sunizona, Arizona
Current Conditions -  °F | °C
As of 12:56 AM on Friday 31 Oct 2014 (Local Time) from KDUG Reporting Station
Clear Clear  
Wind Chill: 58°   Ceiling: Unl
Heat Index: 58°   Visibility: 10mi
Dew Point: 38°   Wind: 5mph
Humidity: 47%   Direction: 290°WNW
Pressure: 30.13"   Gusts: NA
Location:  31.9924°N, 109.696°W
Report Text: KDUG 310756Z AUTO 29004KT 10SM CLR 14/03 A3013 RMK AO2 SLP143 T01440033
Loading
Personal Weather Stations






























Interactive Weather Map
Tropical Storm Tracking
New forecast layout! Learn more

10-Day Weather Forecast

Advertisements
Track Severe Weather on mobile